ΕΜΥ, Εθνική Μετεωρολογική Υπηρεσία - Δελτία Καιρού, Προγνώσεις

ΑΕΡΟΝΑΥΤΙΛΙΑ

GREEK AIRPORTS CODES

LGIK 200500Z AUTO 28023KT //// -RA ////// 13/// Q1010 RE// RMK 0.0MM=

EUROPEAN AIRPORTS CODES

LOWW 200520Z 33004KT CAVOK 16/13 Q1012 NOSIG=